sensor_id;sensor_type;location;lat;lon;timestamp;pressure;altitude;pressure_sealevel;temperature;humidity
64675;BME280;51090;51.512;11.332;2023-07-22T00:02:25;99225.28;;;15.96;nan
64675;BME280;51090;51.512;11.332;2023-07-22T00:04:51;99236.44;;;15.93;nan
64675;BME280;51090;51.512;11.332;2023-07-22T00:07:18;99238.50;;;15.91;nan
64675;BME280;51090;51.512;11.332;2023-07-22T00:09:44;99241.78;;;15.93;nan
64675;BME280;51090;51.512;11.332;2023-07-22T00:12:11;99246.66;;;15.96;nan
64675;BME280;51090;51.512;11.332;2023-07-22T00:14:40;99252.38;;;16.00;nan
64675;BME280;51090;51.512;11.332;2023-07-22T00:17:06;99245.63;;;15.97;nan
64675;BME280;51090;51.512;11.332;2023-07-22T00:19:33;99246.88;;;15.95;nan
64675;BME280;51090;51.512;11.332;2023-07-22T00:22:00;99252.47;;;15.93;nan
64675;BME280;51090;51.512;11.332;2023-07-22T00:24:26;99246.06;;;15.94;nan
64675;BME280;51090;51.512;11.332;2023-07-22T00:26:52;99247.47;;;15.97;nan
64675;BME280;51090;51.512;11.332;2023-07-22T00:29:18;99248.44;;;16.02;nan
64675;BME280;51090;51.512;11.332;2023-07-22T00:31:44;99249.97;;;16.10;nan
64675;BME280;51090;51.512;11.332;2023-07-22T00:34:10;99246.44;;;16.16;nan
64675;BME280;51090;51.512;11.332;2023-07-22T00:36:36;99251.91;;;16.21;nan
64675;BME280;51090;51.512;11.332;2023-07-22T00:39:03;99253.59;;;16.34;nan
64675;BME280;51090;51.512;11.332;2023-07-22T00:41:31;99254.16;;;16.36;nan
64675;BME280;51090;51.512;11.332;2023-07-22T00:43:57;99251.88;;;16.40;nan
64675;BME280;51090;51.512;11.332;2023-07-22T00:46:23;99249.53;;;16.43;nan
64675;BME280;51090;51.512;11.332;2023-07-22T00:48:50;99246.41;;;16.46;nan
64675;BME280;51090;51.512;11.332;2023-07-22T00:51:17;99255.28;;;16.47;nan
64675;BME280;51090;51.512;11.332;2023-07-22T00:53:43;99255.13;;;16.42;nan
64675;BME280;51090;51.512;11.332;2023-07-22T00:56:09;99259.31;;;16.38;nan
64675;BME280;51090;51.512;11.332;2023-07-22T00:58:35;99259.16;;;16.32;nan
64675;BME280;51090;51.512;11.332;2023-07-22T01:01:01;99256.00;;;16.24;nan
64675;BME280;51090;51.512;11.332;2023-07-22T01:03:27;99256.53;;;16.14;nan
64675;BME280;51090;51.512;11.332;2023-07-22T01:05:54;99254.16;;;16.06;nan
64675;BME280;51090;51.512;11.332;2023-07-22T01:08:21;99251.78;;;15.98;nan
64675;BME280;51090;51.512;11.332;2023-07-22T01:10:47;99249.06;;;15.86;nan
64675;BME280;51090;51.512;11.332;2023-07-22T01:13:14;99245.41;;;15.80;nan
64675;BME280;51090;51.512;11.332;2023-07-22T01:15:40;99251.66;;;15.74;nan
64675;BME280;51090;51.512;11.332;2023-07-22T01:18:07;99255.41;;;15.66;nan
64675;BME280;51090;51.512;11.332;2023-07-22T01:20:33;99255.03;;;15.63;nan
64675;BME280;51090;51.512;11.332;2023-07-22T01:23:00;99251.75;;;15.61;nan
64675;BME280;51090;51.512;11.332;2023-07-22T01:25:27;99259.13;;;15.65;nan
64675;BME280;51090;51.512;11.332;2023-07-22T01:27:54;99253.97;;;15.71;nan
64675;BME280;51090;51.512;11.332;2023-07-22T01:30:20;99264.00;;;15.75;nan
64675;BME280;51090;51.512;11.332;2023-07-22T01:32:47;99255.72;;;15.77;nan
64675;BME280;51090;51.512;11.332;2023-07-22T01:35:13;99250.97;;;15.79;nan
64675;BME280;51090;51.512;11.332;2023-07-22T01:37:39;99249.13;;;15.79;nan
64675;BME280;51090;51.512;11.332;2023-07-22T01:40:06;99248.31;;;15.79;nan
64675;BME280;51090;51.512;11.332;2023-07-22T01:42:42;99251.44;;;15.76;nan
64675;BME280;51090;51.512;11.332;2023-07-22T01:45:09;99258.50;;;15.70;nan
64675;BME280;51090;51.512;11.332;2023-07-22T01:47:36;99256.91;;;15.62;nan
64675;BME280;51090;51.512;11.332;2023-07-22T01:50:03;99257.56;;;15.58;nan
64675;BME280;51090;51.512;11.332;2023-07-22T01:52:30;99252.28;;;15.51;nan
64675;BME280;51090;51.512;11.332;2023-07-22T01:54:56;99253.78;;;15.47;nan
64675;BME280;51090;51.512;11.332;2023-07-22T01:57:22;99251.75;;;15.42;nan
64675;BME280;51090;51.512;11.332;2023-07-22T01:59:48;99259.59;;;15.37;nan
64675;BME280;51090;51.512;11.332;2023-07-22T02:02:14;99257.00;;;15.31;nan
64675;BME280;51090;51.512;11.332;2023-07-22T02:04:40;99257.66;;;15.26;nan
64675;BME280;51090;51.512;11.332;2023-07-22T02:07:06;99260.75;;;15.23;nan
64675;BME280;51090;51.512;11.332;2023-07-22T02:09:33;99267.78;;;15.17;nan
64675;BME280;51090;51.512;11.332;2023-07-22T02:11:59;99261.69;;;15.10;nan
64675;BME280;51090;51.512;11.332;2023-07-22T02:14:26;99270.16;;;15.07;nan
64675;BME280;51090;51.512;11.332;2023-07-22T02:16:52;99273.63;;;15.08;nan
64675;BME280;51090;51.512;11.332;2023-07-22T02:19:18;99266.88;;;15.05;nan
64675;BME280;51090;51.512;11.332;2023-07-22T02:21:44;99264.63;;;15.02;nan
64675;BME280;51090;51.512;11.332;2023-07-22T02:24:10;99258.94;;;14.98;nan
64675;BME280;51090;51.512;11.332;2023-07-22T02:26:36;99254.88;;;14.89;nan
64675;BME280;51090;51.512;11.332;2023-07-22T02:29:03;99257.72;;;14.94;nan
64675;BME280;51090;51.512;11.332;2023-07-22T02:31:29;99258.91;;;14.73;nan
64675;BME280;51090;51.512;11.332;2023-07-22T02:33:55;99253.41;;;14.68;nan
64675;BME280;51090;51.512;11.332;2023-07-22T02:36:21;99254.03;;;14.64;nan
64675;BME280;51090;51.512;11.332;2023-07-22T02:38:47;99264.03;;;14.75;nan
64675;BME280;51090;51.512;11.332;2023-07-22T02:41:13;99261.94;;;14.77;nan
64675;BME280;51090;51.512;11.332;2023-07-22T02:43:39;99259.44;;;14.57;nan
64675;BME280;51090;51.512;11.332;2023-07-22T02:46:06;99265.38;;;14.52;nan
64675;BME280;51090;51.512;11.332;2023-07-22T02:48:33;99266.22;;;14.46;nan
64675;BME280;51090;51.512;11.332;2023-07-22T02:51:10;99264.22;;;14.42;nan
64675;BME280;51090;51.512;11.332;2023-07-22T02:53:39;99273.06;;;14.35;nan
64675;BME280;51090;51.512;11.332;2023-07-22T02:56:05;99270.00;;;14.32;nan
64675;BME280;51090;51.512;11.332;2023-07-22T02:58:34;99272.50;;;14.27;nan
64675;BME280;51090;51.512;11.332;2023-07-22T03:01:03;99270.25;;;14.24;nan
64675;BME280;51090;51.512;11.332;2023-07-22T03:03:30;99271.69;;;14.20;nan
64675;BME280;51090;51.512;11.332;2023-07-22T03:05:59;99275.59;;;14.17;nan
64675;BME280;51090;51.512;11.332;2023-07-22T03:08:25;99269.88;;;14.13;nan
64675;BME280;51090;51.512;11.332;2023-07-22T03:10:51;99273.00;;;14.10;nan
64675;BME280;51090;51.512;11.332;2023-07-22T03:13:17;99268.06;;;14.07;nan
64675;BME280;51090;51.512;11.332;2023-07-22T03:15:44;99271.97;;;14.05;nan
64675;BME280;51090;51.512;11.332;2023-07-22T03:18:11;99275.06;;;14.02;nan
64675;BME280;51090;51.512;11.332;2023-07-22T03:20:37;99278.34;;;13.97;nan
64675;BME280;51090;51.512;11.332;2023-07-22T03:23:05;99279.59;;;13.94;nan
64675;BME280;51090;51.512;11.332;2023-07-22T03:25:32;99272.25;;;13.90;nan
64675;BME280;51090;51.512;11.332;2023-07-22T03:27:59;99278.81;;;13.87;nan
64675;BME280;51090;51.512;11.332;2023-07-22T03:30:28;99275.53;;;13.85;nan
64675;BME280;51090;51.512;11.332;2023-07-22T03:32:54;99276.34;;;13.86;nan
64675;BME280;51090;51.512;11.332;2023-07-22T03:35:20;99276.34;;;13.86;nan
64675;BME280;51090;51.512;11.332;2023-07-22T03:37:46;99286.19;;;13.85;nan
64675;BME280;51090;51.512;11.332;2023-07-22T03:40:12;99288.84;;;13.85;nan
64675;BME280;51090;51.512;11.332;2023-07-22T03:42:44;99285.59;;;13.83;nan
64675;BME280;51090;51.512;11.332;2023-07-22T03:45:10;99287.44;;;13.83;nan
64675;BME280;51090;51.512;11.332;2023-07-22T03:47:36;99290.09;;;13.83;nan
64675;BME280;51090;51.512;11.332;2023-07-22T03:50:02;99300.53;;;13.84;nan
64675;BME280;51090;51.512;11.332;2023-07-22T03:52:28;99297.25;;;13.89;nan
64675;BME280;51090;51.512;11.332;2023-07-22T03:54:54;99297.66;;;13.92;nan
64675;BME280;51090;51.512;11.332;2023-07-22T03:57:28;99305.84;;;13.98;nan
64675;BME280;51090;51.512;11.332;2023-07-22T03:59:55;99296.81;;;13.99;nan
64675;BME280;51090;51.512;11.332;2023-07-22T04:02:22;99304.59;;;14.00;nan
64675;BME280;51090;51.512;11.332;2023-07-22T04:04:53;99306.03;;;14.03;nan
64675;BME280;51090;51.512;11.332;2023-07-22T04:07:19;99303.94;;;14.05;nan
64675;BME280;51090;51.512;11.332;2023-07-22T04:09:45;99309.91;;;14.07;nan
64675;BME280;51090;51.512;11.332;2023-07-22T04:12:11;99304.56;;;14.07;nan
64675;BME280;51090;51.512;11.332;2023-07-22T04:14:38;99304.81;;;14.05;nan
64675;BME280;51090;51.512;11.332;2023-07-22T04:17:04;99307.84;;;14.02;nan
64675;BME280;51090;51.512;11.332;2023-07-22T04:19:31;99316.47;;;14.04;nan
64675;BME280;51090;51.512;11.332;2023-07-22T04:21:57;99325.69;;;14.08;nan
64675;BME280;51090;51.512;11.332;2023-07-22T04:24:23;99321.78;;;14.11;nan
64675;BME280;51090;51.512;11.332;2023-07-22T04:26:51;99316.84;;;14.14;nan
64675;BME280;51090;51.512;11.332;2023-07-22T04:29:17;99326.06;;;14.19;nan
64675;BME280;51090;51.512;11.332;2023-07-22T04:31:43;99326.47;;;14.22;nan
64675;BME280;51090;51.512;11.332;2023-07-22T04:34:09;99329.53;;;14.26;nan
64675;BME280;51090;51.512;11.332;2023-07-22T04:36:37;99324.78;;;14.28;nan
64675;BME280;51090;51.512;11.332;2023-07-22T04:39:03;99340.75;;;14.41;nan
64675;BME280;51090;51.512;11.332;2023-07-22T04:41:33;99330.94;;;14.35;nan
64675;BME280;51090;51.512;11.332;2023-07-22T04:43:59;99337.50;;;14.39;nan
64675;BME280;51090;51.512;11.332;2023-07-22T04:46:25;99335.00;;;14.44;nan
64675;BME280;51090;51.512;11.332;2023-07-22T04:48:55;99353.59;;;14.64;nan
64675;BME280;51090;51.512;11.332;2023-07-22T04:51:21;99346.81;;;14.62;nan
64675;BME280;51090;51.512;11.332;2023-07-22T04:53:47;99341.66;;;14.67;nan
64675;BME280;51090;51.512;11.332;2023-07-22T04:56:13;99345.75;;;14.76;nan
64675;BME280;51090;51.512;11.332;2023-07-22T04:58:40;99349.81;;;14.85;nan
64675;BME280;51090;51.512;11.332;2023-07-22T05:01:06;99361.22;;;14.99;nan
64675;BME280;51090;51.512;11.332;2023-07-22T05:03:32;99368.66;;;15.22;nan
64675;BME280;51090;51.512;11.332;2023-07-22T05:05:58;99358.94;;;15.28;nan
64675;BME280;51090;51.512;11.332;2023-07-22T05:08:24;99363.59;;;15.39;nan
64675;BME280;51090;51.512;11.332;2023-07-22T05:10:50;99372.69;;;15.56;nan
64675;BME280;51090;51.512;11.332;2023-07-22T05:13:16;99376.94;;;15.64;nan
64675;BME280;51090;51.512;11.332;2023-07-22T05:15:42;99373.47;;;15.63;nan
64675;BME280;51090;51.512;11.332;2023-07-22T05:18:08;99376.72;;;15.72;nan
64675;BME280;51090;51.512;11.332;2023-07-22T05:20:34;99372.91;;;15.80;nan
64675;BME280;51090;51.512;11.332;2023-07-22T05:23:00;99371.25;;;15.85;nan
64675;BME280;51090;51.512;11.332;2023-07-22T05:25:26;99371.97;;;15.93;nan
64675;BME280;51090;51.512;11.332;2023-07-22T05:27:52;99376.16;;;16.07;nan
64675;BME280;51090;51.512;11.332;2023-07-22T05:30:19;99380.25;;;16.09;nan
64675;BME280;51090;51.512;11.332;2023-07-22T05:32:45;99370.34;;;16.10;nan
64675;BME280;51090;51.512;11.332;2023-07-22T05:35:11;99378.78;;;16.14;nan
64675;BME280;51090;51.512;11.332;2023-07-22T05:37:37;99391.75;;;16.28;nan
64675;BME280;51090;51.512;11.332;2023-07-22T05:40:03;99378.16;;;16.30;nan
64675;BME280;51090;51.512;11.332;2023-07-22T05:42:29;99385.75;;;16.33;nan
64675;BME280;51090;51.512;11.332;2023-07-22T05:44:56;99386.28;;;16.42;nan
64675;BME280;51090;51.512;11.332;2023-07-22T05:47:23;99397.63;;;16.55;nan
64675;BME280;51090;51.512;11.332;2023-07-22T05:49:49;99390.56;;;16.61;nan
64675;BME280;51090;51.512;11.332;2023-07-22T05:52:15;99384.88;;;16.69;nan
64675;BME280;51090;51.512;11.332;2023-07-22T05:54:41;99387.94;;;16.73;nan
64675;BME280;51090;51.512;11.332;2023-07-22T05:57:07;99391.38;;;16.80;nan
64675;BME280;51090;51.512;11.332;2023-07-22T05:59:34;99387.13;;;16.91;nan
64675;BME280;51090;51.512;11.332;2023-07-22T06:02:03;99395.44;;;17.13;nan
64675;BME280;51090;51.512;11.332;2023-07-22T06:04:29;99394.16;;;17.15;nan
64675;BME280;51090;51.512;11.332;2023-07-22T06:06:55;99401.66;;;17.25;nan
64675;BME280;51090;51.512;11.332;2023-07-22T06:09:21;99390.47;;;17.28;nan
64675;BME280;51090;51.512;11.332;2023-07-22T06:11:47;99397.69;;;17.28;nan
64675;BME280;51090;51.512;11.332;2023-07-22T06:14:13;99397.84;;;17.33;nan
64675;BME280;51090;51.512;11.332;2023-07-22T06:16:39;99400.97;;;17.41;nan
64675;BME280;51090;51.512;11.332;2023-07-22T06:19:05;99398.81;;;17.50;nan
64675;BME280;51090;51.512;11.332;2023-07-22T06:21:31;99398.25;;;17.60;nan
64675;BME280;51090;51.512;11.332;2023-07-22T06:23:58;99405.50;;;17.83;nan
64675;BME280;51090;51.512;11.332;2023-07-22T06:26:24;99394.78;;;17.83;nan
64675;BME280;51090;51.512;11.332;2023-07-22T06:28:50;99405.88;;;17.98;nan
64675;BME280;51090;51.512;11.332;2023-07-22T06:31:16;99404.00;;;17.99;nan
64675;BME280;51090;51.512;11.332;2023-07-22T06:33:44;99404.34;;;18.02;nan
64675;BME280;51090;51.512;11.332;2023-07-22T06:36:10;99400.47;;;18.10;nan
64675;BME280;51090;51.512;11.332;2023-07-22T06:38:36;99393.16;;;17.94;nan
64675;BME280;51090;51.512;11.332;2023-07-22T06:41:02;99400.50;;;17.98;nan
64675;BME280;51090;51.512;11.332;2023-07-22T06:43:29;99396.06;;;18.04;nan
64675;BME280;51090;51.512;11.332;2023-07-22T06:45:55;99401.88;;;18.13;nan
64675;BME280;51090;51.512;11.332;2023-07-22T06:48:21;99417.50;;;18.27;nan
64675;BME280;51090;51.512;11.332;2023-07-22T06:50:48;99410.69;;;18.37;nan
64675;BME280;51090;51.512;11.332;2023-07-22T06:53:14;99406.59;;;18.46;nan
64675;BME280;51090;51.512;11.332;2023-07-22T06:55:48;99409.63;;;18.49;nan
64675;BME280;51090;51.512;11.332;2023-07-22T06:58:14;99411.88;;;18.41;nan
64675;BME280;51090;51.512;11.332;2023-07-22T07:00:40;99408.25;;;18.35;nan
64675;BME280;51090;51.512;11.332;2023-07-22T07:03:06;99401.16;;;18.29;nan
64675;BME280;51090;51.512;11.332;2023-07-22T07:05:32;99406.66;;;18.22;nan
64675;BME280;51090;51.512;11.332;2023-07-22T07:07:58;99407.00;;;18.14;nan
64675;BME280;51090;51.512;11.332;2023-07-22T07:10:24;99414.97;;;18.09;nan
64675;BME280;51090;51.512;11.332;2023-07-22T07:12:50;99412.75;;;18.06;nan
64675;BME280;51090;51.512;11.332;2023-07-22T07:15:16;99409.47;;;18.04;nan
64675;BME280;51090;51.512;11.332;2023-07-22T07:17:42;99414.38;;;18.07;nan
64675;BME280;51090;51.512;11.332;2023-07-22T07:20:08;99423.94;;;18.26;nan
64675;BME280;51090;51.512;11.332;2023-07-22T07:22:34;99415.50;;;18.35;nan
64675;BME280;51090;51.512;11.332;2023-07-22T07:25:00;99426.09;;;18.53;nan
64675;BME280;51090;51.512;11.332;2023-07-22T07:27:27;99422.69;;;18.58;nan
64675;BME280;51090;51.512;11.332;2023-07-22T07:29:53;99428.03;;;18.69;nan
64675;BME280;51090;51.512;11.332;2023-07-22T07:32:19;99434.44;;;18.80;nan
64675;BME280;51090;51.512;11.332;2023-07-22T07:34:44;99436.31;;;18.80;nan
64675;BME280;51090;51.512;11.332;2023-07-22T07:37:11;99424.91;;;18.61;nan
64675;BME280;51090;51.512;11.332;2023-07-22T07:39:36;99436.69;;;18.60;nan
64675;BME280;51090;51.512;11.332;2023-07-22T07:42:03;99435.78;;;18.54;nan
64675;BME280;51090;51.512;11.332;2023-07-22T07:44:29;99419.13;;;18.40;nan
64675;BME280;51090;51.512;11.332;2023-07-22T07:46:54;99440.22;;;18.48;nan
64675;BME280;51090;51.512;11.332;2023-07-22T07:49:20;99441.03;;;18.61;nan
64675;BME280;51090;51.512;11.332;2023-07-22T07:51:46;99437.47;;;18.72;nan
64675;BME280;51090;51.512;11.332;2023-07-22T07:54:12;99440.16;;;18.84;nan
64675;BME280;51090;51.512;11.332;2023-07-22T07:56:37;99453.66;;;19.01;nan
64675;BME280;51090;51.512;11.332;2023-07-22T07:59:03;99457.72;;;19.03;nan
64675;BME280;51090;51.512;11.332;2023-07-22T08:01:30;99438.59;;;19.00;nan
64675;BME280;51090;51.512;11.332;2023-07-22T08:03:56;99465.97;;;19.13;nan
64675;BME280;51090;51.512;11.332;2023-07-22T08:06:22;99448.63;;;19.04;nan
64675;BME280;51090;51.512;11.332;2023-07-22T08:08:47;99450.72;;;19.02;nan
64675;BME280;51090;51.512;11.332;2023-07-22T08:11:14;99450.34;;;19.10;nan
64675;BME280;51090;51.512;11.332;2023-07-22T08:13:42;99461.88;;;19.23;nan
64675;BME280;51090;51.512;11.332;2023-07-22T08:16:11;99461.66;;;19.41;nan
64675;BME280;51090;51.512;11.332;2023-07-22T08:18:37;99462.91;;;19.50;nan
64675;BME280;51090;51.512;11.332;2023-07-22T08:21:05;99461.50;;;19.65;nan
64675;BME280;51090;51.512;11.332;2023-07-22T08:23:34;99490.25;;;19.76;nan
64675;BME280;51090;51.512;11.332;2023-07-22T08:26:00;99464.25;;;19.82;nan
64675;BME280;51090;51.512;11.332;2023-07-22T08:28:26;99468.72;;;19.93;nan
64675;BME280;51090;51.512;11.332;2023-07-22T08:30:56;99455.75;;;20.07;nan
64675;BME280;51090;51.512;11.332;2023-07-22T08:33:24;99470.47;;;20.38;nan
64675;BME280;51090;51.512;11.332;2023-07-22T08:35:51;99470.28;;;20.83;nan
64675;BME280;51090;51.512;11.332;2023-07-22T08:38:17;99485.22;;;21.18;nan
64675;BME280;51090;51.512;11.332;2023-07-22T08:40:43;99481.22;;;21.43;nan
64675;BME280;51090;51.512;11.332;2023-07-22T08:43:10;99472.69;;;21.56;nan
64675;BME280;51090;51.512;11.332;2023-07-22T08:45:38;99464.84;;;21.55;nan
64675;BME280;51090;51.512;11.332;2023-07-22T08:48:08;99447.47;;;21.40;nan
64675;BME280;51090;51.512;11.332;2023-07-22T08:53:12;99466.81;;;21.64;nan
64675;BME280;51090;51.512;11.332;2023-07-22T08:55:39;99475.94;;;21.90;nan
64675;BME280;51090;51.512;11.332;2023-07-22T08:58:08;99488.78;;;22.10;nan
64675;BME280;51090;51.512;11.332;2023-07-22T09:00:36;99489.19;;;22.29;nan
64675;BME280;51090;51.512;11.332;2023-07-22T09:03:02;99491.00;;;22.61;nan
64675;BME280;51090;51.512;11.332;2023-07-22T09:05:29;99489.94;;;22.62;nan
64675;BME280;51090;51.512;11.332;2023-07-22T09:07:56;99469.41;;;22.61;nan
64675;BME280;51090;51.512;11.332;2023-07-22T09:10:24;99461.25;;;22.56;nan
64675;BME280;51090;51.512;11.332;2023-07-22T09:12:52;99461.13;;;22.30;nan
64675;BME280;51090;51.512;11.332;2023-07-22T09:15:18;99465.47;;;22.36;nan
64675;BME280;51090;51.512;11.332;2023-07-22T09:17:45;99465.81;;;22.50;nan
64675;BME280;51090;51.512;11.332;2023-07-22T09:20:13;99469.19;;;22.78;nan
64675;BME280;51090;51.512;11.332;2023-07-22T09:22:51;99464.28;;;22.70;nan
64675;BME280;51090;51.512;11.332;2023-07-22T09:25:25;99449.19;;;22.74;nan
64675;BME280;51090;51.512;11.332;2023-07-22T09:27:53;99465.25;;;23.06;nan
64675;BME280;51090;51.512;11.332;2023-07-22T09:32:54;99466.94;;;23.28;nan
64675;BME280;51090;51.512;11.332;2023-07-22T09:35:20;99476.13;;;23.37;nan
64675;BME280;51090;51.512;11.332;2023-07-22T09:37:47;99477.25;;;23.61;nan
64675;BME280;51090;51.512;11.332;2023-07-22T09:40:24;99465.63;;;23.45;nan
64675;BME280;51090;51.512;11.332;2023-07-22T09:43:00;99444.69;;;23.00;nan
64675;BME280;51090;51.512;11.332;2023-07-22T09:45:30;99458.97;;;22.95;nan
64675;BME280;51090;51.512;11.332;2023-07-22T09:47:58;99448.22;;;23.06;nan
64675;BME280;51090;51.512;11.332;2023-07-22T09:50:25;99458.81;;;23.22;nan
64675;BME280;51090;51.512;11.332;2023-07-22T09:52:54;99462.09;;;23.50;nan
64675;BME280;51090;51.512;11.332;2023-07-22T09:55:26;99467.81;;;23.79;nan
64675;BME280;51090;51.512;11.332;2023-07-22T10:00:24;99466.44;;;24.18;nan
64675;BME280;51090;51.512;11.332;2023-07-22T10:02:52;99465.53;;;24.43;nan
64675;BME280;51090;51.512;11.332;2023-07-22T10:05:19;99481.50;;;24.65;nan
64675;BME280;51090;51.512;11.332;2023-07-22T10:07:51;99458.44;;;24.72;nan
64675;BME280;51090;51.512;11.332;2023-07-22T10:10:22;99461.16;;;24.67;nan
64675;BME280;51090;51.512;11.332;2023-07-22T10:12:49;99472.03;;;24.62;nan
64675;BME280;51090;51.512;11.332;2023-07-22T10:15:16;99468.22;;;24.58;nan
64675;BME280;51090;51.512;11.332;2023-07-22T10:17:44;99456.38;;;24.28;nan
64675;BME280;51090;51.512;11.332;2023-07-22T10:20:12;99441.25;;;23.97;nan
64675;BME280;51090;51.512;11.332;2023-07-22T10:22:45;99445.59;;;23.62;nan
64675;BME280;51090;51.512;11.332;2023-07-22T10:27:48;99458.59;;;23.75;nan
64675;BME280;51090;51.512;11.332;2023-07-22T10:30:16;99453.97;;;23.96;nan
64675;BME280;51090;51.512;11.332;2023-07-22T10:38:12;99454.50;;;24.24;nan
64675;BME280;51090;51.512;11.332;2023-07-22T10:40:53;99449.63;;;24.16;nan
64675;BME280;51090;51.512;11.332;2023-07-22T10:43:32;99448.03;;;23.79;nan
64675;BME280;51090;51.512;11.332;2023-07-22T10:46:07;99447.50;;;23.72;nan
64675;BME280;51090;51.512;11.332;2023-07-22T10:48:36;99449.94;;;23.78;nan
64675;BME280;51090;51.512;11.332;2023-07-22T10:53:48;99452.63;;;23.83;nan
64675;BME280;51090;51.512;11.332;2023-07-22T10:56:21;99465.91;;;24.05;nan
64675;BME280;51090;51.512;11.332;2023-07-22T11:12:09;99469.06;;;24.64;nan
64675;BME280;51090;51.512;11.332;2023-07-22T11:15:04;99453.09;;;24.47;nan
64675;BME280;51090;51.512;11.332;2023-07-22T11:17:33;99451.50;;;24.36;nan
64675;BME280;51090;51.512;11.332;2023-07-22T11:20:01;99453.88;;;24.42;nan
64675;BME280;51090;51.512;11.332;2023-07-22T11:22:27;99461.22;;;24.52;nan
64675;BME280;51090;51.512;11.332;2023-07-22T11:24:56;99461.13;;;24.77;nan
64675;BME280;51090;51.512;11.332;2023-07-22T11:27:23;99469.16;;;24.98;nan
64675;BME280;51090;51.512;11.332;2023-07-22T11:29:49;99463.09;;;25.22;nan
64675;BME280;51090;51.512;11.332;2023-07-22T11:32:17;99458.69;;;25.31;nan
64675;BME280;51090;51.512;11.332;2023-07-22T11:34:43;99465.91;;;25.46;nan
64675;BME280;51090;51.512;11.332;2023-07-22T11:37:13;99432.44;;;25.21;nan
64675;BME280;51090;51.512;11.332;2023-07-22T11:39:40;99441.44;;;25.06;nan
64675;BME280;51090;51.512;11.332;2023-07-22T11:42:08;99432.13;;;24.68;nan
64675;BME280;51090;51.512;11.332;2023-07-22T11:44:34;99435.72;;;24.43;nan
64675;BME280;51090;51.512;11.332;2023-07-22T11:47:02;99419.56;;;24.07;nan
64675;BME280;51090;51.512;11.332;2023-07-22T11:49:34;99416.91;;;23.81;nan
64675;BME280;51090;51.512;11.332;2023-07-22T11:54:32;99413.66;;;23.33;nan
64675;BME280;51090;51.512;11.332;2023-07-22T11:57:22;99418.78;;;23.55;nan
64675;BME280;51090;51.512;11.332;2023-07-22T11:59:53;99421.78;;;23.84;nan
64675;BME280;51090;51.512;11.332;2023-07-22T12:02:26;99439.28;;;24.43;nan
64675;BME280;51090;51.512;11.332;2023-07-22T12:05:00;99437.03;;;24.66;nan
64675;BME280;51090;51.512;11.332;2023-07-22T12:07:28;99446.16;;;24.85;nan
64675;BME280;51090;51.512;11.332;2023-07-22T12:09:59;99440.31;;;25.12;nan
64675;BME280;51090;51.512;11.332;2023-07-22T12:15:22;99426.34;;;25.69;nan
64675;BME280;51090;51.512;11.332;2023-07-22T12:18:00;99447.72;;;26.10;nan
64675;BME280;51090;51.512;11.332;2023-07-22T12:20:26;99440.78;;;25.98;nan
64675;BME280;51090;51.512;11.332;2023-07-22T12:22:53;99430.19;;;25.97;nan
64675;BME280;51090;51.512;11.332;2023-07-22T12:25:19;99442.78;;;26.17;nan
64675;BME280;51090;51.512;11.332;2023-07-22T12:27:45;99450.13;;;26.40;nan
64675;BME280;51090;51.512;11.332;2023-07-22T12:30:11;99434.09;;;26.15;nan
64675;BME280;51090;51.512;11.332;2023-07-22T12:32:38;99422.16;;;25.87;nan
64675;BME280;51090;51.512;11.332;2023-07-22T12:35:05;99413.59;;;25.35;nan
64675;BME280;51090;51.512;11.332;2023-07-22T12:37:31;99410.09;;;24.85;nan
64675;BME280;51090;51.512;11.332;2023-07-22T12:39:57;99405.91;;;24.43;nan
64675;BME280;51090;51.512;11.332;2023-07-22T12:42:23;99403.59;;;24.10;nan
64675;BME280;51090;51.512;11.332;2023-07-22T12:44:49;99396.88;;;23.77;nan
64675;BME280;51090;51.512;11.332;2023-07-22T12:47:14;99394.41;;;23.55;nan
64675;BME280;51090;51.512;11.332;2023-07-22T12:49:40;99396.59;;;23.74;nan
64675;BME280;51090;51.512;11.332;2023-07-22T12:52:06;99386.03;;;23.82;nan
64675;BME280;51090;51.512;11.332;2023-07-22T12:54:38;99394.63;;;24.25;nan
64675;BME280;51090;51.512;11.332;2023-07-22T12:57:05;99410.53;;;24.52;nan
64675;BME280;51090;51.512;11.332;2023-07-22T12:59:31;99406.00;;;24.92;nan
64675;BME280;51090;51.512;11.332;2023-07-22T13:01:57;99410.47;;;25.12;nan
64675;BME280;51090;51.512;11.332;2023-07-22T13:04:24;99408.94;;;25.40;nan
64675;BME280;51090;51.512;11.332;2023-07-22T13:06:50;99401.50;;;25.56;nan
64675;BME280;51090;51.512;11.332;2023-07-22T13:09:20;99394.69;;;25.59;nan
64675;BME280;51090;51.512;11.332;2023-07-22T13:11:46;99382.75;;;25.55;nan
64675;BME280;51090;51.512;11.332;2023-07-22T13:14:12;99375.31;;;25.36;nan
64675;BME280;51090;51.512;11.332;2023-07-22T13:16:37;99377.38;;;25.50;nan
64675;BME280;51090;51.512;11.332;2023-07-22T13:19:03;99384.09;;;25.57;nan
64675;BME280;51090;51.512;11.332;2023-07-22T13:21:30;99384.50;;;25.75;nan
64675;BME280;51090;51.512;11.332;2023-07-22T13:23:55;99392.94;;;26.02;nan
64675;BME280;51090;51.512;11.332;2023-07-22T13:26:21;99397.31;;;26.22;nan
64675;BME280;51090;51.512;11.332;2023-07-22T13:28:47;99383.00;;;26.17;nan
64675;BME280;51090;51.512;11.332;2023-07-22T13:31:13;99386.34;;;26.33;nan
64675;BME280;51090;51.512;11.332;2023-07-22T13:33:38;99381.56;;;26.43;nan
64675;BME280;51090;51.512;11.332;2023-07-22T13:36:06;99375.63;;;26.65;nan
64675;BME280;51090;51.512;11.332;2023-07-22T13:38:31;99396.19;;;26.71;nan
64675;BME280;51090;51.512;11.332;2023-07-22T13:40:57;99367.91;;;26.48;nan
64675;BME280;51090;51.512;11.332;2023-07-22T13:43:23;99377.66;;;26.55;nan
64675;BME280;51090;51.512;11.332;2023-07-22T13:45:48;99379.16;;;26.42;nan
64675;BME280;51090;51.512;11.332;2023-07-22T13:48:14;99358.66;;;26.06;nan